createdAt,value
2019-04-11T00:01:05.915Z,4.37
2019-04-11T00:03:35.794Z,4.30
2019-04-11T00:06:05.815Z,4.33
2019-04-11T00:08:36.989Z,4.43
2019-04-11T00:11:06.928Z,3.63
2019-04-11T00:13:36.624Z,4.00
2019-04-11T00:16:06.953Z,4.00
2019-04-11T00:18:36.726Z,4.30
2019-04-11T00:21:06.850Z,4.20
2019-04-11T00:23:36.948Z,4.47
2019-04-11T00:26:06.842Z,4.40
2019-04-11T00:28:37.539Z,4.60
2019-04-11T00:31:08.451Z,4.90
2019-04-11T00:33:38.534Z,4.63
2019-04-11T00:36:10.375Z,4.40
2019-04-11T00:38:40.322Z,4.80
2019-04-11T00:41:10.877Z,4.50
2019-04-11T00:43:43.519Z,5.03
2019-04-11T00:46:12.239Z,4.67
2019-04-11T00:48:41.936Z,4.70
2019-04-11T00:51:11.929Z,5.07
2019-04-11T00:53:42.363Z,4.90
2019-04-11T00:56:12.400Z,4.83
2019-04-11T00:58:42.258Z,4.63
2019-04-11T01:01:12.028Z,4.63
2019-04-11T01:03:41.846Z,4.50
2019-04-11T01:06:12.197Z,5.03
2019-04-11T01:08:42.045Z,5.33
2019-04-11T01:11:12.000Z,5.10
2019-04-11T01:13:50.345Z,4.77
2019-04-11T01:16:32.341Z,5.23
2019-04-11T01:19:02.610Z,5.00
2019-04-11T01:21:32.790Z,4.57
2019-04-11T01:24:03.736Z,4.73
2019-04-11T01:26:33.504Z,4.43
2019-04-11T01:29:04.038Z,4.83
2019-04-11T01:31:35.906Z,4.43
2019-04-11T01:34:06.518Z,4.57
2019-04-11T01:36:37.317Z,3.90
2019-04-11T01:39:27.922Z,4.60
2019-04-11T01:41:58.679Z,4.30
2019-04-11T01:44:28.479Z,4.50
2019-04-11T01:46:59.547Z,4.07
2019-04-11T01:49:30.323Z,4.20
2019-04-11T01:52:00.411Z,4.10
2019-04-11T01:54:30.081Z,4.13
2019-04-11T01:57:01.322Z,4.30
2019-04-11T01:59:31.275Z,4.40
2019-04-11T02:02:26.249Z,4.80
2019-04-11T02:05:18.835Z,4.50
2019-04-11T02:07:49.019Z,4.43
2019-04-11T02:10:18.990Z,4.87
2019-04-11T02:12:49.123Z,4.30
2019-04-11T02:15:20.071Z,4.10
2019-04-11T02:17:50.927Z,3.70
2019-04-11T02:20:20.933Z,4.27
2019-04-11T02:22:56.908Z,4.27
2019-04-11T02:25:46.971Z,4.20
2019-04-11T02:28:18.812Z,4.10
2019-04-11T02:30:52.053Z,4.50
2019-04-11T02:33:24.788Z,3.97
2019-04-11T02:35:54.517Z,4.33
2019-04-11T02:38:25.726Z,4.17
2019-04-11T02:40:57.424Z,6.17
2019-04-11T02:43:29.427Z,17.53
2019-04-11T02:46:11.706Z,23.10
2019-04-11T02:48:31.162Z,17.40
2019-04-11T02:51:02.997Z,19.13
2019-04-11T02:53:34.365Z,10.60
2019-04-11T02:56:06.235Z,21.67
2019-04-11T02:58:36.966Z,24.03
2019-04-11T03:01:09.889Z,37.60
2019-04-11T03:03:41.666Z,36.93
2019-04-11T03:06:11.733Z,51.87
2019-04-11T03:08:43.498Z,36.60
2019-04-11T03:11:14.391Z,23.07
2019-04-11T03:13:48.676Z,11.37
2019-04-11T03:16:32.815Z,10.40
2019-04-11T03:19:08.514Z,9.40
2019-04-11T03:21:25.764Z,6.87
2019-04-11T03:23:56.072Z,5.20
2019-04-11T03:26:27.032Z,5.40
2019-04-11T03:28:57.883Z,5.60
2019-04-11T03:34:53.678Z,6.17
2019-04-11T03:39:29.021Z,6.47
2019-04-11T03:41:54.758Z,6.00
2019-04-11T03:44:20.518Z,6.83
2019-04-11T03:46:52.471Z,5.90
2019-04-11T03:49:25.435Z,5.83
2019-04-11T03:51:46.062Z,5.20
2019-04-11T03:54:17.802Z,5.27
2019-04-11T03:56:49.319Z,5.50
2019-04-11T03:59:21.682Z,5.83
2019-04-11T04:01:51.229Z,5.83
2019-04-11T04:04:21.799Z,5.30
2019-04-11T04:06:52.866Z,5.47
2019-04-11T04:09:23.966Z,5.60
2019-04-11T04:11:56.933Z,5.30
2019-04-11T04:14:37.155Z,5.70
2019-04-11T04:17:21.277Z,5.60
2019-04-11T04:19:59.496Z,5.40
2019-04-11T04:22:35.617Z,5.30
2019-04-11T04:25:06.032Z,5.47
2019-04-11T04:27:36.068Z,5.27
2019-04-11T04:30:08.463Z,5.07
2019-04-11T04:32:38.725Z,5.10
2019-04-11T04:35:12.677Z,5.70
2019-04-11T04:37:41.023Z,6.00
2019-04-11T04:40:26.903Z,5.47
2019-04-11T04:42:47.663Z,5.50
2019-04-11T04:45:16.344Z,5.93
2019-04-11T04:47:54.249Z,6.47
2019-04-11T04:50:19.939Z,5.40
2019-04-11T04:52:51.574Z,5.50
2019-04-11T04:55:25.971Z,5.53
2019-04-11T04:57:57.569Z,5.80
2019-04-11T05:00:28.042Z,6.27
2019-04-11T05:02:59.843Z,5.73
2019-04-11T05:05:31.009Z,5.90
2019-04-11T05:08:02.734Z,6.70
2019-04-11T05:10:33.320Z,6.23
2019-04-11T05:13:03.661Z,6.60
2019-04-11T05:15:34.548Z,6.80
2019-04-11T05:18:06.118Z,6.37
2019-04-11T05:20:36.379Z,7.77
2019-04-11T05:23:06.494Z,6.57
2019-04-11T05:25:36.959Z,6.87
2019-04-11T05:28:06.771Z,6.80
2019-04-11T05:30:36.494Z,6.90
2019-04-11T05:33:06.543Z,8.07
2019-04-11T05:35:36.354Z,7.67
2019-04-11T05:38:06.627Z,7.47
2019-04-11T05:40:36.328Z,7.30
2019-04-11T05:43:06.183Z,7.20
2019-04-11T05:45:36.084Z,7.67
2019-04-11T05:48:09.406Z,7.60
2019-04-11T05:50:47.054Z,8.20
2019-04-11T05:53:13.588Z,8.90
2019-04-11T05:55:45.814Z,8.90
2019-04-11T05:58:16.138Z,8.07
2019-04-11T06:00:53.335Z,8.77
2019-04-11T06:03:23.905Z,7.83
2019-04-11T06:06:18.348Z,8.20
2019-04-11T06:08:48.978Z,8.23
2019-04-11T06:11:48.200Z,7.83
2019-04-11T06:14:27.254Z,8.13
2019-04-11T06:17:00.855Z,7.73
2019-04-11T06:19:56.312Z,7.47
2019-04-11T06:22:26.621Z,8.00
2019-04-11T06:25:19.275Z,8.63
2019-04-11T06:27:59.950Z,8.33
2019-04-11T06:30:48.618Z,9.97
2019-04-11T06:33:28.992Z,10.07
2019-04-11T06:36:21.092Z,9.63
2019-04-11T06:39:25.470Z,9.83
2019-04-11T06:42:17.054Z,10.20
2019-04-11T06:45:06.422Z,10.60
2019-04-11T06:47:51.332Z,11.00
2019-04-11T06:50:40.232Z,11.67
2019-04-11T06:53:11.642Z,10.40
2019-04-11T06:56:08.981Z,10.50
2019-04-11T06:58:43.453Z,10.60
2019-04-11T07:01:18.137Z,10.80
2019-04-11T07:03:55.280Z,8.67
2019-04-11T07:06:27.592Z,8.47
2019-04-11T07:09:20.205Z,8.97
2019-04-11T07:11:53.239Z,7.53
2019-04-11T07:14:29.308Z,8.00
2019-04-11T07:17:16.695Z,7.33
2019-04-11T07:20:06.631Z,7.27
2019-04-11T07:22:55.293Z,6.83
2019-04-11T07:25:53.928Z,6.80
2019-04-11T07:28:42.217Z,7.17
2019-04-11T07:31:30.355Z,6.23
2019-04-11T07:34:22.023Z,6.03
2019-04-11T07:37:10.487Z,5.30
2019-04-11T07:40:00.666Z,4.90
2019-04-11T07:42:52.279Z,5.57
2019-04-11T07:45:26.969Z,5.30
2019-04-11T07:48:07.141Z,4.93
2019-04-11T07:50:36.989Z,5.10
2019-04-11T07:53:07.007Z,4.67
2019-04-11T07:55:36.967Z,4.30
2019-04-11T07:58:25.115Z,4.47
2019-04-11T08:01:12.661Z,4.23
2019-04-11T08:04:01.571Z,4.03
2019-04-11T08:06:54.262Z,4.10
2019-04-11T08:09:36.281Z,4.50
2019-04-11T08:12:12.876Z,4.00
2019-04-11T08:15:01.464Z,3.50
2019-04-11T08:17:40.637Z,3.70
2019-04-11T08:20:33.246Z,3.73
2019-04-11T08:23:05.683Z,4.03
2019-04-11T08:25:57.784Z,4.40
2019-04-11T08:28:28.845Z,4.80
2019-04-11T08:31:28.623Z,4.60
2019-04-11T08:34:01.214Z,4.10
2019-04-11T08:36:50.623Z,4.07
2019-04-11T08:39:24.810Z,4.27
2019-04-11T08:42:21.209Z,4.00
2019-04-11T08:44:52.205Z,4.23
2019-04-11T08:47:22.596Z,4.07
2019-04-11T08:49:55.804Z,3.70
2019-04-11T08:52:57.170Z,4.03
2019-04-11T08:55:46.693Z,4.20
2019-04-11T08:58:36.504Z,3.83
2019-04-11T09:01:08.978Z,4.60
2019-04-11T09:04:04.631Z,4.50
2019-04-11T09:06:32.574Z,4.20
2019-04-11T09:09:20.883Z,4.60
2019-04-11T09:11:58.190Z,4.67
2019-04-11T09:14:46.502Z,3.60
2019-04-11T09:17:23.230Z,3.00
2019-04-11T09:20:11.542Z,2.83
2019-04-11T09:22:49.033Z,3.33
2019-04-11T09:25:37.066Z,3.00
2019-04-11T09:28:11.390Z,3.20
2019-04-11T09:30:58.983Z,3.20
2019-04-11T09:33:57.547Z,3.40
2019-04-11T09:36:55.464Z,3.10
2019-04-11T09:39:35.648Z,3.70
2019-04-11T09:42:30.588Z,3.30
2019-04-11T09:45:35.383Z,2.90
2019-04-11T09:48:37.802Z,3.30
2019-04-11T09:51:40.288Z,3.30
2019-04-11T09:54:15.595Z,3.17
2019-04-11T09:57:04.362Z,3.67
2019-04-11T09:59:41.176Z,5.80
2019-04-11T10:02:29.545Z,3.97
2019-04-11T10:05:01.454Z,4.10
2019-04-11T10:08:08.662Z,6.77
2019-04-11T10:10:57.496Z,3.57
2019-04-11T10:13:45.023Z,3.40
2019-04-11T10:16:32.279Z,3.10
2019-04-11T10:19:13.861Z,2.63
2019-04-11T10:21:49.857Z,2.90
2019-04-11T10:24:38.814Z,2.90
2019-04-11T10:27:17.591Z,2.83
2019-04-11T10:30:06.604Z,3.10
2019-04-11T10:32:41.900Z,2.97
2019-04-11T10:35:40.825Z,2.90
2019-04-11T10:38:10.547Z,3.13
2019-04-11T10:41:14.734Z,2.97
2019-04-11T10:43:45.663Z,2.80
2019-04-11T10:46:27.146Z,3.00
2019-04-11T10:49:05.311Z,2.73
2019-04-11T10:51:58.109Z,2.87
2019-04-11T10:54:30.953Z,3.20
2019-04-11T10:57:20.928Z,3.10
2019-04-11T10:59:51.161Z,3.23
2019-04-11T11:02:39.730Z,3.00
2019-04-11T11:05:11.198Z,3.00
2019-04-11T11:07:42.977Z,3.13
2019-04-11T11:10:16.100Z,3.27
2019-04-11T11:13:11.806Z,3.00
2019-04-11T11:15:45.237Z,3.00
2019-04-11T11:19:04.334Z,3.23
2019-04-11T11:21:16.096Z,3.20
2019-04-11T11:23:54.411Z,4.27
2019-04-11T11:26:35.610Z,3.33
2019-04-11T11:29:24.286Z,3.30
2019-04-11T11:31:56.587Z,3.20
2019-04-11T11:34:30.567Z,5.30
2019-04-11T11:37:20.794Z,3.37
2019-04-11T11:40:12.983Z,9.93
2019-04-11T11:42:58.781Z,3.83
2019-04-11T11:45:49.160Z,8.07
2019-04-11T11:48:36.446Z,5.87
2019-04-11T11:51:25.647Z,4.33
2019-04-11T11:54:02.934Z,7.70
2019-04-11T11:56:34.068Z,6.33
2019-04-11T11:59:20.196Z,5.67
2019-04-11T12:02:00.042Z,7.03
2019-04-11T12:05:07.818Z,4.30
2019-04-11T12:07:40.951Z,3.40
2019-04-11T12:10:22.534Z,4.70
2019-04-11T12:13:21.974Z,6.37
2019-04-11T12:16:07.799Z,4.87
2019-04-11T12:19:17.982Z,3.73
2019-04-11T12:21:48.895Z,3.10
2019-04-11T12:24:32.503Z,4.43
2019-04-11T12:27:37.190Z,6.40
2019-04-11T12:30:33.966Z,4.20
2019-04-11T12:33:13.520Z,3.37
2019-04-11T12:35:48.625Z,2.80
2019-04-11T12:38:36.199Z,2.67
2019-04-11T12:41:43.952Z,2.40
2019-04-11T12:44:32.700Z,2.53
2019-04-11T12:47:20.352Z,3.13
2019-04-11T12:50:24.844Z,3.43
2019-04-11T12:53:00.762Z,2.70
2019-04-11T12:55:48.283Z,3.00
2019-04-11T12:58:26.255Z,2.70
2019-04-11T13:01:15.146Z,3.70
2019-04-11T13:04:02.748Z,3.10
2019-04-11T13:06:46.072Z,2.80
2019-04-11T13:09:32.506Z,2.70
2019-04-11T13:12:03.156Z,2.93
2019-04-11T13:14:41.566Z,2.83
2019-04-11T13:17:14.679Z,2.97
2019-04-11T13:20:18.539Z,3.17
2019-04-11T13:22:49.603Z,3.23
2019-04-11T13:25:47.783Z,3.70
2019-04-11T13:28:17.508Z,3.03
2019-04-11T13:31:21.599Z,3.10
2019-04-11T13:33:55.134Z,3.70
2019-04-11T13:36:41.223Z,3.77
2019-04-11T13:39:11.081Z,3.77
2019-04-11T13:41:48.734Z,3.80
2019-04-11T13:44:25.027Z,3.87
2019-04-11T13:47:26.120Z,4.37
2019-04-11T13:50:03.932Z,4.03
2019-04-11T13:52:54.364Z,4.20
2019-04-11T13:55:49.376Z,4.10
2019-04-11T13:58:36.931Z,4.10
2019-04-11T14:01:16.741Z,3.77
2019-04-11T14:04:00.824Z,3.43
2019-04-11T14:06:34.748Z,4.10
2019-04-11T14:09:38.598Z,4.03
2019-04-11T14:12:14.281Z,3.43
2019-04-11T14:14:51.958Z,3.70
2019-04-11T14:17:59.107Z,3.40
2019-04-11T14:20:34.790Z,3.80
2019-04-11T14:23:35.205Z,3.37
2019-04-11T14:26:14.651Z,3.20
2019-04-11T14:28:49.927Z,3.50
2019-04-11T14:31:37.436Z,3.50
2019-04-11T14:34:16.555Z,3.57
2019-04-11T14:36:56.218Z,3.33
2019-04-11T14:39:27.768Z,3.27
2019-04-11T14:42:16.546Z,3.47
2019-04-11T14:44:46.604Z,3.53
2019-04-11T14:47:47.785Z,3.30
2019-04-11T14:50:18.898Z,3.37
2019-04-11T14:53:26.091Z,3.50
2019-04-11T14:56:02.682Z,4.20
2019-04-11T14:58:55.082Z,3.73
2019-04-11T15:01:27.917Z,4.00
2019-04-11T15:04:24.308Z,3.90
2019-04-11T15:06:53.990Z,4.47
2019-04-11T15:09:48.365Z,4.03
2019-04-11T15:12:23.610Z,4.03
2019-04-11T15:15:15.519Z,4.00
2019-04-11T15:17:45.979Z,4.33
2019-04-11T15:20:42.361Z,3.53
2019-04-11T15:23:37.537Z,4.40
2019-04-11T15:26:25.053Z,4.77
2019-04-11T15:29:01.405Z,4.60
2019-04-11T15:31:47.728Z,4.60
2019-04-11T15:34:26.836Z,4.37
2019-04-11T15:37:05.355Z,5.70
2019-04-11T15:39:53.043Z,4.40
2019-04-11T15:42:40.472Z,4.00
2019-04-11T15:45:17.207Z,4.10
2019-04-11T15:47:58.856Z,3.73
2019-04-11T15:51:05.889Z,3.50
2019-04-11T15:53:36.960Z,3.67
2019-04-11T15:56:41.759Z,3.77
2019-04-11T15:59:24.712Z,4.03
2019-04-11T16:02:12.316Z,3.57
2019-04-11T16:05:08.964Z,3.60
2019-04-11T16:07:57.766Z,4.00
2019-04-11T16:10:28.935Z,4.00
2019-04-11T16:13:06.259Z,3.70
2019-04-11T16:15:40.658Z,4.20
2019-04-11T16:18:29.643Z,3.70
2019-04-11T16:21:18.679Z,4.23
2019-04-11T16:23:59.128Z,3.57
2019-04-11T16:26:43.500Z,3.60
2019-04-11T16:29:27.172Z,3.70
2019-04-11T16:31:58.503Z,3.50
2019-04-11T16:34:48.641Z,3.70
2019-04-11T16:37:18.013Z,3.43
2019-04-11T16:40:07.851Z,3.37
2019-04-11T16:42:43.354Z,3.40
2019-04-11T16:45:32.918Z,3.40
2019-04-11T16:48:02.151Z,3.60
2019-04-11T16:50:32.768Z,4.40
2019-04-11T16:53:02.808Z,3.50
2019-04-11T16:55:32.642Z,3.90
2019-04-11T16:58:02.342Z,5.03
2019-04-11T17:00:32.665Z,4.40
2019-04-11T17:03:02.396Z,4.53
2019-04-11T17:05:32.090Z,5.03
2019-04-11T17:08:25.760Z,32.87
2019-04-11T17:11:00.844Z,4.57
2019-04-11T17:13:32.448Z,4.07
2019-04-11T17:16:02.870Z,4.30
2019-04-11T17:18:34.361Z,4.40
2019-04-11T17:21:07.820Z,4.20
2019-04-11T17:23:35.643Z,4.67
2019-04-11T17:26:06.138Z,4.33
2019-04-11T17:28:36.299Z,4.50
2019-04-11T17:31:06.043Z,3.90
2019-04-11T17:33:35.707Z,4.30
2019-04-11T17:36:05.415Z,4.23
2019-04-11T17:38:37.253Z,4.00
2019-04-11T17:41:11.996Z,4.20
2019-04-11T17:43:42.249Z,4.03
2019-04-11T17:46:12.391Z,4.43
2019-04-11T17:48:42.295Z,4.17
2019-04-11T17:51:11.998Z,4.27
2019-04-11T17:53:42.050Z,4.40
2019-04-11T17:56:11.744Z,4.23
2019-04-11T17:58:41.372Z,4.30
2019-04-11T18:01:11.011Z,4.83
2019-04-11T18:03:42.056Z,4.77
2019-04-11T18:06:12.112Z,4.77
2019-04-11T18:08:41.839Z,4.63
2019-04-11T18:11:12.607Z,4.53
2019-04-11T18:13:42.315Z,4.40
2019-04-11T18:16:11.963Z,4.70
2019-04-11T18:18:41.658Z,4.70
2019-04-11T18:21:11.460Z,4.90
2019-04-11T18:23:41.180Z,4.87
2019-04-11T18:26:12.171Z,4.93
2019-04-11T18:28:41.862Z,4.60
2019-04-11T18:31:11.607Z,5.07
2019-04-11T18:33:41.475Z,4.90
2019-04-11T18:36:11.142Z,4.33
2019-04-11T18:38:41.079Z,4.80
2019-04-11T18:41:13.662Z,4.67
2019-04-11T18:43:44.864Z,4.80
2019-04-11T18:46:14.607Z,4.83
2019-04-11T18:48:44.251Z,4.37
2019-04-11T18:51:14.503Z,4.63
2019-04-11T18:53:44.128Z,4.90
2019-04-11T18:56:14.116Z,4.93
2019-04-11T18:58:44.066Z,4.83
2019-04-11T19:01:14.722Z,4.70
2019-04-11T19:03:44.407Z,4.77
2019-04-11T19:06:14.502Z,4.67
2019-04-11T19:08:44.182Z,4.40
2019-04-11T19:11:15.849Z,4.83
2019-04-11T19:13:47.104Z,4.60
2019-04-11T19:16:16.896Z,4.90
2019-04-11T19:18:47.808Z,5.00
2019-04-11T19:21:21.087Z,5.33
2019-04-11T19:23:49.735Z,4.93
2019-04-11T19:26:19.413Z,4.97
2019-04-11T19:28:49.311Z,4.93
2019-04-11T19:31:20.217Z,5.17
2019-04-11T19:33:49.834Z,5.77
2019-04-11T19:36:19.474Z,5.33
2019-04-11T19:38:49.396Z,5.43
2019-04-11T19:41:19.112Z,5.53
2019-04-11T19:43:49.806Z,5.97
2019-04-11T19:46:20.459Z,5.40
2019-04-11T19:48:55.351Z,5.40
2019-04-11T19:51:22.291Z,5.53
2019-04-11T19:53:53.018Z,5.60
2019-04-11T19:56:29.855Z,5.80
2019-04-11T19:58:59.499Z,5.70
2019-04-11T20:01:29.536Z,5.83
2019-04-11T20:03:59.212Z,5.63
2019-04-11T20:06:31.119Z,5.83
2019-04-11T20:09:01.126Z,5.37
2019-04-11T20:11:32.715Z,5.40
2019-04-11T20:14:03.088Z,5.50
2019-04-11T20:16:41.398Z,5.30
2019-04-11T20:19:04.563Z,4.90
2019-04-11T20:21:38.134Z,4.93
2019-04-11T20:24:05.533Z,5.60
2019-04-11T20:26:35.197Z,5.33
2019-04-11T20:29:05.037Z,4.80
2019-04-11T20:31:34.902Z,5.53
2019-04-11T20:34:07.223Z,4.87
2019-04-11T20:36:36.209Z,5.10
2019-04-11T20:39:08.395Z,4.90
2019-04-11T20:41:38.331Z,5.37
2019-04-11T20:44:08.067Z,5.20
2019-04-11T20:46:37.688Z,4.83
2019-04-11T20:49:07.644Z,5.33
2019-04-11T20:51:37.276Z,5.37
2019-04-11T20:54:07.957Z,5.20
2019-04-11T20:56:39.923Z,5.20
2019-04-11T20:59:10.367Z,5.17
2019-04-11T21:01:40.927Z,5.60
2019-04-11T21:04:10.615Z,5.00
2019-04-11T21:06:40.574Z,5.27
2019-04-11T21:09:12.119Z,5.07
2019-04-11T21:11:41.891Z,5.03
2019-04-11T21:14:11.567Z,5.40
2019-04-11T21:16:41.199Z,5.73
2019-04-11T21:19:11.108Z,5.27
2019-04-11T21:21:41.531Z,5.27
2019-04-11T21:24:11.173Z,5.33
2019-04-11T21:26:40.922Z,5.50
2019-04-11T21:29:10.782Z,5.63
2019-04-11T21:31:40.451Z,5.83
2019-04-11T21:34:10.067Z,5.60
2019-04-11T21:36:40.291Z,5.87
2019-04-11T21:39:10.001Z,5.60
2019-04-11T21:41:39.655Z,5.77
2019-04-11T21:44:09.558Z,5.97
2019-04-11T21:46:41.780Z,5.90
2019-04-11T21:49:11.539Z,5.70
2019-04-11T21:51:42.337Z,5.93
2019-04-11T21:54:14.996Z,6.10
2019-04-11T21:56:44.026Z,6.20
2019-04-11T21:59:13.779Z,6.20
2019-04-11T22:01:44.159Z,5.60
2019-04-11T22:04:13.946Z,6.07
2019-04-11T22:06:43.583Z,6.20
2019-04-11T22:09:13.544Z,5.93
2019-04-11T22:11:43.543Z,6.23
2019-04-11T22:14:13.263Z,6.17
2019-04-11T22:16:45.130Z,6.13
2019-04-11T22:19:14.977Z,6.53
2019-04-11T22:21:46.046Z,6.27
2019-04-11T22:24:16.240Z,6.73
2019-04-11T22:26:50.119Z,6.00
2019-04-11T22:29:18.040Z,7.00
2019-04-11T22:31:47.698Z,6.33
2019-04-11T22:34:29.219Z,6.13
2019-04-11T22:37:00.570Z,5.93
2019-04-11T22:39:31.521Z,5.90
2019-04-11T22:42:02.086Z,6.13
2019-04-11T22:44:31.782Z,6.33
2019-04-11T22:47:01.511Z,5.83
2019-04-11T22:49:31.151Z,6.30
2019-04-11T22:52:00.778Z,6.53
2019-04-11T22:54:30.419Z,6.50
2019-04-11T22:57:00.152Z,7.60
2019-04-11T22:59:29.783Z,8.73
2019-04-11T23:02:09.043Z,8.60
2019-04-11T23:04:38.679Z,9.13
2019-04-11T23:07:08.321Z,8.93
2019-04-11T23:09:38.141Z,9.47
2019-04-11T23:12:07.767Z,8.90
2019-04-11T23:14:37.439Z,7.87
2019-04-11T23:17:07.095Z,7.63
2019-04-11T23:19:37.058Z,7.40
2019-04-11T23:22:06.691Z,7.50
2019-04-11T23:24:36.562Z,7.40
2019-04-11T23:27:06.208Z,7.53
2019-04-11T23:29:35.844Z,6.80
2019-04-11T23:32:05.475Z,7.40
2019-04-11T23:34:35.202Z,7.50
2019-04-11T23:37:04.958Z,6.60
2019-04-11T23:39:35.624Z,7.03
2019-04-11T23:42:05.723Z,7.30
2019-04-11T23:44:35.499Z,7.13
2019-04-11T23:47:05.227Z,7.23
2019-04-11T23:49:35.198Z,7.67
2019-04-11T23:52:05.107Z,7.07
2019-04-11T23:54:35.016Z,7.30
2019-04-11T23:57:04.645Z,7.67
2019-04-11T23:59:34.289Z,7.73
